Reply To: Father's Day

Welcome to Sky Soaring Forums General Discussion Father's Day Reply To: Father's Day

#6240
Don GrilloDon Grillo
Keymaster
Tow plane is down. Forecast wx is:
KRFD [Rockford Intl]

TAF: KRFD 161143Z 1612/1712 03006KT 3SM BR VCSH OVC005
FM161600 03007KT P6SM OVC007
FM162100 04009KT P6SM OVC012
FM170200 02006KT 4SM BR BKN007